createdAt,value
2019-05-19T00:00:25.692Z,13.50
2019-05-19T00:03:04.413Z,10.75
2019-05-19T00:05:39.249Z,13.80
2019-05-19T00:08:12.167Z,13.73
2019-05-19T00:10:47.144Z,14.13
2019-05-19T00:13:20.687Z,13.40
2019-05-19T00:15:53.293Z,11.33
2019-05-19T00:18:25.917Z,14.23
2019-05-19T00:21:00.319Z,13.53
2019-05-19T00:23:32.973Z,15.47
2019-05-19T00:26:06.456Z,14.10
2019-05-19T00:28:39.756Z,14.73
2019-05-19T00:31:12.247Z,14.10
2019-05-19T00:33:44.797Z,14.37
2019-05-19T00:36:19.585Z,14.33
2019-05-19T00:38:52.423Z,14.97
2019-05-19T00:41:25.685Z,14.33
2019-05-19T00:43:58.204Z,14.20
2019-05-19T00:46:30.846Z,14.40
2019-05-19T00:49:04.196Z,12.55
2019-05-19T00:51:36.832Z,11.83
2019-05-19T00:54:09.305Z,13.50
2019-05-19T00:56:42.147Z,12.73
2019-05-19T00:59:14.669Z,12.97
2019-05-19T01:01:47.276Z,13.40
2019-05-19T01:04:20.836Z,14.63
2019-05-19T01:06:53.541Z,13.83
2019-05-19T01:09:26.060Z,13.50
2019-05-19T01:11:58.661Z,10.23
2019-05-19T01:14:34.614Z,13.40
2019-05-19T01:17:07.272Z,13.03
2019-05-19T01:19:39.804Z,12.93
2019-05-19T01:22:12.391Z,14.60
2019-05-19T01:24:47.640Z,15.00
2019-05-19T01:27:20.238Z,13.97
2019-05-19T01:29:52.716Z,12.52
2019-05-19T01:32:25.167Z,13.77
2019-05-19T01:34:57.704Z,13.77
2019-05-19T01:37:30.641Z,12.33
2019-05-19T01:40:07.651Z,13.07
2019-05-19T01:42:40.125Z,13.33
2019-05-19T01:45:14.636Z,13.10
2019-05-19T01:47:47.235Z,14.00
2019-05-19T01:50:20.671Z,13.47
2019-05-19T01:52:53.871Z,14.13
2019-05-19T01:55:27.559Z,13.97
2019-05-19T01:58:01.734Z,14.13
2019-05-19T02:00:34.383Z,15.37
2019-05-19T02:03:08.990Z,12.97
2019-05-19T02:05:41.640Z,14.37
2019-05-19T02:08:14.927Z,14.00
2019-05-19T02:10:47.604Z,13.80
2019-05-19T02:13:20.080Z,15.37
2019-05-19T02:15:53.193Z,13.83
2019-05-19T02:18:25.703Z,14.10
2019-05-19T02:20:58.214Z,14.80
2019-05-19T02:23:31.091Z,14.30
2019-05-19T02:26:03.850Z,14.10
2019-05-19T02:28:36.435Z,14.50
2019-05-19T02:31:09.520Z,13.32
2019-05-19T02:33:41.994Z,12.17
2019-05-19T02:36:14.462Z,14.97
2019-05-19T02:38:46.985Z,14.97
2019-05-19T02:41:19.553Z,14.30
2019-05-19T02:43:53.050Z,15.80
2019-05-19T02:46:25.797Z,15.50
2019-05-19T02:48:59.386Z,14.13
2019-05-19T02:51:32.660Z,13.13
2019-05-19T02:54:06.068Z,13.70
2019-05-19T02:56:38.721Z,13.73
2019-05-19T02:59:11.365Z,12.90
2019-05-19T03:02:05.451Z,13.23
2019-05-19T03:04:50.239Z,12.20
2019-05-19T03:07:22.895Z,12.73
2019-05-19T03:09:55.355Z,14.00
2019-05-19T03:12:27.828Z,13.33
2019-05-19T03:15:03.197Z,13.33
2019-05-19T03:17:35.832Z,11.45
2019-05-19T03:20:09.861Z,13.30
2019-05-19T03:22:42.421Z,14.57
2019-05-19T03:25:16.936Z,16.13
2019-05-19T03:27:49.684Z,16.43
2019-05-19T03:30:45.355Z,15.05
2019-05-19T03:33:21.522Z,16.30
2019-05-19T03:35:55.782Z,19.60
2019-05-19T03:38:28.443Z,27.00
2019-05-19T03:41:00.974Z,28.00
2019-05-19T03:43:33.567Z,28.57
2019-05-19T03:46:06.377Z,31.80
2019-05-19T03:48:39.122Z,31.07
2019-05-19T03:51:29.457Z,27.47
2019-05-19T03:54:04.368Z,26.13
2019-05-19T03:56:36.900Z,24.27
2019-05-19T03:59:09.412Z,22.80
2019-05-19T04:01:42.038Z,20.97
2019-05-19T04:04:14.723Z,20.10
2019-05-19T04:06:47.307Z,21.43
2019-05-19T04:09:19.750Z,23.37
2019-05-19T04:11:52.607Z,23.47
2019-05-19T04:14:25.186Z,22.92
2019-05-19T04:16:57.599Z,22.40
2019-05-19T04:19:30.071Z,24.13
2019-05-19T04:22:02.618Z,22.17
2019-05-19T04:24:36.761Z,22.33
2019-05-19T04:27:09.201Z,21.77
2019-05-19T04:29:41.950Z,20.62
2019-05-19T04:32:14.497Z,19.02
2019-05-19T04:34:50.216Z,22.17
2019-05-19T04:37:22.704Z,20.33
2019-05-19T04:39:55.302Z,20.23
2019-05-19T04:42:27.915Z,21.20
2019-05-19T04:45:00.538Z,20.07
2019-05-19T04:47:36.126Z,23.93
2019-05-19T04:50:08.735Z,22.40
2019-05-19T04:52:41.275Z,21.10
2019-05-19T04:55:13.930Z,22.03
2019-05-19T04:57:47.817Z,22.13
2019-05-19T05:00:20.486Z,20.17
2019-05-19T05:02:53.617Z,22.80
2019-05-19T05:05:27.264Z,20.57
2019-05-19T05:07:59.823Z,20.93
2019-05-19T05:10:32.364Z,20.53
2019-05-19T05:13:04.983Z,19.47
2019-05-19T05:15:37.616Z,20.20
2019-05-19T05:18:10.116Z,18.83
2019-05-19T05:20:42.775Z,21.23
2019-05-19T05:23:15.974Z,21.00
2019-05-19T05:25:48.739Z,20.23
2019-05-19T05:28:22.383Z,20.80
2019-05-19T05:30:54.852Z,17.20
2019-05-19T05:33:27.672Z,21.07
2019-05-19T05:36:01.124Z,22.00
2019-05-19T05:38:35.359Z,20.17
2019-05-19T05:41:07.838Z,21.33
2019-05-19T05:43:41.237Z,21.87
2019-05-19T05:46:13.892Z,21.53
2019-05-19T05:48:49.635Z,27.43
2019-05-19T05:51:25.370Z,24.70
2019-05-19T05:53:59.766Z,21.67
2019-05-19T05:56:33.920Z,28.07
2019-05-19T05:59:15.415Z,26.93
2019-05-19T06:01:51.653Z,27.47
2019-05-19T06:04:25.176Z,27.53
2019-05-19T06:06:58.709Z,26.50
2019-05-19T06:09:33.703Z,27.63
2019-05-19T06:12:06.822Z,27.50
2019-05-19T06:14:43.527Z,25.27
2019-05-19T06:17:17.008Z,26.73
2019-05-19T06:19:50.528Z,23.77
2019-05-19T06:22:25.296Z,25.23
2019-05-19T06:24:59.516Z,28.00
2019-05-19T06:27:32.300Z,25.67
2019-05-19T06:30:08.959Z,22.75
2019-05-19T06:32:47.948Z,23.10
2019-05-19T06:35:20.656Z,25.40
2019-05-19T06:37:53.916Z,27.30
2019-05-19T06:40:26.732Z,25.03
2019-05-19T06:43:00.892Z,25.37
2019-05-19T06:45:34.250Z,25.57
2019-05-19T06:48:07.128Z,28.47
2019-05-19T06:51:07.567Z,26.40
2019-05-19T06:53:41.959Z,23.67
2019-05-19T06:56:14.581Z,26.93
2019-05-19T06:58:48.884Z,23.77
2019-05-19T07:01:21.493Z,24.40
2019-05-19T07:03:54.096Z,23.43
2019-05-19T07:06:26.936Z,21.13
2019-05-19T07:08:59.428Z,19.93
2019-05-19T07:11:33.120Z,21.77
2019-05-19T07:14:05.665Z,22.23
2019-05-19T07:16:38.273Z,23.00
2019-05-19T07:19:10.765Z,21.80
2019-05-19T07:21:43.510Z,23.10
2019-05-19T07:24:16.172Z,17.58
2019-05-19T07:26:48.786Z,14.87
2019-05-19T07:29:24.562Z,15.97
2019-05-19T07:31:58.148Z,17.13
2019-05-19T07:34:31.843Z,17.63
2019-05-19T07:37:05.143Z,20.63
2019-05-19T07:39:39.033Z,17.77
2019-05-19T07:42:13.339Z,31.73
2019-05-19T07:44:46.005Z,32.67
2019-05-19T07:47:19.396Z,32.53
2019-05-19T07:49:51.984Z,26.83
2019-05-19T07:52:26.352Z,18.45
2019-05-19T07:55:03.471Z,20.60
2019-05-19T07:57:44.588Z,25.33
2019-05-19T08:00:17.160Z,26.47
2019-05-19T08:02:51.330Z,22.33
2019-05-19T08:05:24.050Z,19.57
2019-05-19T08:07:56.644Z,21.93
2019-05-19T08:10:29.271Z,21.60
2019-05-19T08:13:01.933Z,22.17
2019-05-19T08:15:35.611Z,21.60
2019-05-19T08:18:08.376Z,22.13
2019-05-19T08:20:41.550Z,25.70
2019-05-19T08:23:14.204Z,27.23
2019-05-19T08:25:49.383Z,22.40
2019-05-19T08:28:23.496Z,21.87
2019-05-19T08:31:02.731Z,23.27
2019-05-19T08:33:41.804Z,20.83
2019-05-19T08:36:14.698Z,18.37
2019-05-19T08:38:47.132Z,17.50
2019-05-19T08:41:19.495Z,16.60
2019-05-19T08:43:59.418Z,18.53
2019-05-19T08:46:32.040Z,18.80
2019-05-19T08:49:04.461Z,15.43
2019-05-19T08:51:37.360Z,13.07
2019-05-19T08:54:14.864Z,11.30
2019-05-19T08:56:50.266Z,11.27
2019-05-19T08:59:22.661Z,10.30
2019-05-19T09:01:55.012Z,8.40
2019-05-19T09:04:28.363Z,6.67
2019-05-19T09:07:01.643Z,4.87
2019-05-19T09:09:34.998Z,6.97
2019-05-19T09:12:07.325Z,6.73
2019-05-19T09:14:40.064Z,6.20
2019-05-19T09:17:13.225Z,5.00
2019-05-19T09:19:45.682Z,5.47
2019-05-19T09:22:18.696Z,4.17
2019-05-19T09:24:52.065Z,4.03
2019-05-19T09:27:24.367Z,3.87
2019-05-19T09:29:58.284Z,3.90
2019-05-19T09:32:32.488Z,5.70
2019-05-19T09:35:07.632Z,5.67
2019-05-19T09:37:46.671Z,4.90
2019-05-19T09:40:20.946Z,5.57
2019-05-19T09:42:54.884Z,5.73
2019-05-19T09:45:29.134Z,5.57
2019-05-19T09:48:09.589Z,5.53
2019-05-19T09:50:46.551Z,5.00
2019-05-19T09:53:18.908Z,4.80
2019-05-19T09:55:52.949Z,6.40
2019-05-19T09:58:26.545Z,6.13
2019-05-19T10:01:00.966Z,5.60
2019-05-19T10:03:34.200Z,5.60
2019-05-19T10:06:07.665Z,5.47
2019-05-19T10:09:01.087Z,6.63
2019-05-19T10:12:04.509Z,5.83
2019-05-19T10:14:38.894Z,5.93
2019-05-19T10:17:12.906Z,5.47
2019-05-19T10:19:45.331Z,4.70
2019-05-19T10:22:20.106Z,5.17
2019-05-19T10:25:18.108Z,5.03
2019-05-19T10:27:55.697Z,4.37
2019-05-19T10:30:30.028Z,6.10
2019-05-19T10:33:03.996Z,5.50
2019-05-19T10:35:37.440Z,4.82
2019-05-19T10:38:11.795Z,5.13
2019-05-19T10:40:44.222Z,4.20
2019-05-19T10:43:19.000Z,4.00
2019-05-19T10:45:59.878Z,4.00
2019-05-19T10:48:32.943Z,4.20
2019-05-19T10:51:06.318Z,3.15
2019-05-19T10:53:38.711Z,3.93
2019-05-19T10:56:11.059Z,3.20
2019-05-19T10:58:44.473Z,3.63
2019-05-19T11:01:16.885Z,3.70
2019-05-19T11:03:49.326Z,3.57
2019-05-19T11:06:22.179Z,3.13
2019-05-19T11:08:55.217Z,4.40
2019-05-19T11:11:28.312Z,3.37
2019-05-19T11:14:03.244Z,3.90
2019-05-19T11:16:35.634Z,3.40
2019-05-19T11:19:08.085Z,5.93
2019-05-19T11:21:40.445Z,3.80
2019-05-19T11:24:15.612Z,5.07
2019-05-19T11:26:48.588Z,6.20
2019-05-19T11:29:21.240Z,5.00
2019-05-19T11:31:53.887Z,4.70
2019-05-19T11:34:27.331Z,4.73
2019-05-19T11:37:00.916Z,5.43
2019-05-19T11:39:35.241Z,4.90
2019-05-19T11:42:08.833Z,4.70
2019-05-19T11:44:42.368Z,4.70
2019-05-19T11:47:14.927Z,4.57
2019-05-19T11:49:47.461Z,5.00
2019-05-19T11:52:21.512Z,5.63
2019-05-19T11:54:55.468Z,4.97
2019-05-19T11:57:28.144Z,3.67
2019-05-19T12:00:04.496Z,4.10
2019-05-19T12:02:37.030Z,4.00
2019-05-19T12:05:10.880Z,4.57
2019-05-19T12:07:43.561Z,3.87
2019-05-19T12:10:16.812Z,3.90
2019-05-19T12:12:50.421Z,4.37
2019-05-19T12:15:23.089Z,4.60
2019-05-19T12:17:58.751Z,4.50
2019-05-19T12:20:32.897Z,5.23
2019-05-19T12:23:05.553Z,3.40
2019-05-19T12:25:38.948Z,3.35
2019-05-19T12:28:11.798Z,3.53
2019-05-19T12:30:47.222Z,4.10
2019-05-19T12:33:20.121Z,4.33
2019-05-19T12:35:53.740Z,3.90
2019-05-19T12:38:26.733Z,3.50
2019-05-19T12:40:59.524Z,3.73
2019-05-19T12:43:35.954Z,4.20
2019-05-19T12:46:16.442Z,3.80
2019-05-19T12:48:50.366Z,4.07
2019-05-19T12:51:26.675Z,3.83
2019-05-19T12:53:59.591Z,3.40
2019-05-19T12:56:39.857Z,3.40
2019-05-19T12:59:16.629Z,3.77
2019-05-19T13:01:49.378Z,3.55
2019-05-19T13:04:23.837Z,4.07
2019-05-19T13:06:59.372Z,3.80
2019-05-19T13:09:37.613Z,3.67
2019-05-19T13:12:10.379Z,4.50
2019-05-19T13:14:46.116Z,3.90
2019-05-19T13:17:20.177Z,3.40
2019-05-19T13:19:52.857Z,3.30
2019-05-19T13:22:25.356Z,4.00
2019-05-19T13:24:58.012Z,3.40
2019-05-19T13:27:33.323Z,3.70
2019-05-19T13:30:07.017Z,3.83
2019-05-19T13:32:40.623Z,3.20
2019-05-19T13:35:13.294Z,4.03
2019-05-19T13:37:46.035Z,2.63
2019-05-19T13:40:18.656Z,2.57
2019-05-19T13:42:52.091Z,2.40
2019-05-19T13:45:25.840Z,2.57
2019-05-19T13:48:00.220Z,2.67
2019-05-19T13:50:32.855Z,2.30
2019-05-19T13:53:05.419Z,1.70
2019-05-19T13:55:39.249Z,1.70
2019-05-19T13:58:13.423Z,1.90
2019-05-19T14:00:46.919Z,1.80
2019-05-19T14:03:19.497Z,1.50
2019-05-19T14:05:52.209Z,1.67
2019-05-19T14:08:24.898Z,1.43
2019-05-19T14:10:57.621Z,1.47
2019-05-19T14:13:30.852Z,1.50
2019-05-19T14:16:03.269Z,2.30
2019-05-19T14:18:35.620Z,1.40
2019-05-19T14:21:08.078Z,2.63
2019-05-19T14:23:41.330Z,1.37
2019-05-19T14:26:14.737Z,1.30
2019-05-19T14:28:47.668Z,1.10
2019-05-19T14:31:20.103Z,1.43
2019-05-19T14:33:52.905Z,1.23
2019-05-19T14:36:25.436Z,1.45
2019-05-19T14:39:05.495Z,0.87
2019-05-19T14:41:52.275Z,1.07
2019-05-19T14:44:29.947Z,1.20
2019-05-19T14:47:05.337Z,1.50
2019-05-19T14:49:38.587Z,1.17
2019-05-19T14:52:12.295Z,1.20
2019-05-19T14:54:46.122Z,1.73
2019-05-19T14:57:20.532Z,1.43
2019-05-19T14:59:54.453Z,0.70
2019-05-19T15:02:27.757Z,1.20
2019-05-19T15:05:00.124Z,1.47
2019-05-19T15:07:35.155Z,1.17
2019-05-19T15:10:09.811Z,1.20
2019-05-19T15:12:42.404Z,1.20
2019-05-19T15:15:17.141Z,1.00
2019-05-19T15:17:49.496Z,1.10
2019-05-19T15:20:25.740Z,1.20
2019-05-19T15:23:00.441Z,1.77
2019-05-19T15:25:34.303Z,1.13
2019-05-19T15:28:07.624Z,0.90
2019-05-19T15:30:40.397Z,1.10
2019-05-19T15:33:12.775Z,1.40
2019-05-19T15:35:47.858Z,1.23
2019-05-19T15:38:20.280Z,1.70
2019-05-19T15:40:56.638Z,1.10
2019-05-19T15:43:38.300Z,1.23
2019-05-19T15:46:13.151Z,1.00
2019-05-19T15:48:48.242Z,1.30
2019-05-19T15:51:28.436Z,1.30
2019-05-19T15:54:02.229Z,1.10
2019-05-19T15:56:35.472Z,1.17
2019-05-19T15:59:15.636Z,1.00
2019-05-19T16:01:51.648Z,1.33
2019-05-19T16:04:25.338Z,1.20
2019-05-19T16:06:59.238Z,1.30
2019-05-19T16:09:31.642Z,1.27
2019-05-19T16:12:04.743Z,1.23
2019-05-19T16:14:37.894Z,1.47
2019-05-19T16:17:11.343Z,1.20
2019-05-19T16:19:43.740Z,1.23
2019-05-19T16:22:16.131Z,1.10
2019-05-19T16:24:48.509Z,1.20
2019-05-19T16:27:22.358Z,1.27
2019-05-19T16:29:55.727Z,1.33
2019-05-19T16:32:29.735Z,1.30
2019-05-19T16:35:05.136Z,1.40
2019-05-19T16:37:41.314Z,1.20
2019-05-19T16:40:14.221Z,1.10
2019-05-19T16:42:46.596Z,1.93
2019-05-19T16:45:20.208Z,1.47
2019-05-19T16:47:52.626Z,1.23
2019-05-19T16:50:24.953Z,1.40
2019-05-19T16:52:58.003Z,1.23
2019-05-19T16:55:33.582Z,1.43
2019-05-19T16:58:20.001Z,1.97
2019-05-19T17:00:57.753Z,1.50
2019-05-19T17:03:33.388Z,1.30
2019-05-19T17:06:07.263Z,1.30
2019-05-19T17:08:39.623Z,1.40
2019-05-19T17:11:18.474Z,3.00
2019-05-19T17:13:54.138Z,2.17
2019-05-19T17:16:27.645Z,1.80
2019-05-19T17:19:01.260Z,1.40
2019-05-19T17:21:34.587Z,1.87
2019-05-19T17:24:09.207Z,1.70
2019-05-19T17:26:43.417Z,1.70
2019-05-19T17:29:18.785Z,2.23
2019-05-19T17:32:05.555Z,2.03
2019-05-19T17:34:38.574Z,1.53
2019-05-19T17:37:14.310Z,1.70
2019-05-19T17:39:48.512Z,1.87
2019-05-19T17:42:21.176Z,1.97
2019-05-19T17:44:54.583Z,1.90
2019-05-19T17:47:27.741Z,5.03
2019-05-19T17:50:01.639Z,2.07
2019-05-19T17:52:35.751Z,1.93
2019-05-19T17:55:10.641Z,1.70
2019-05-19T17:57:46.640Z,3.10
2019-05-19T18:00:44.450Z,3.17
2019-05-19T18:03:17.874Z,2.20
2019-05-19T18:05:51.241Z,1.83
2019-05-19T18:08:24.556Z,1.77
2019-05-19T18:10:59.214Z,1.50
2019-05-19T18:13:33.355Z,1.60
2019-05-19T18:16:05.698Z,1.80
2019-05-19T18:18:41.076Z,2.53
2019-05-19T18:21:15.048Z,1.80
2019-05-19T18:23:48.236Z,1.80
2019-05-19T18:26:22.134Z,1.42
2019-05-19T18:28:56.403Z,1.80
2019-05-19T18:31:31.348Z,2.87
2019-05-19T18:34:04.585Z,1.90
2019-05-19T18:36:40.038Z,2.07
2019-05-19T18:39:13.371Z,2.27
2019-05-19T18:41:45.857Z,1.60
2019-05-19T18:44:19.255Z,1.30
2019-05-19T18:46:54.577Z,1.70
2019-05-19T18:49:27.114Z,2.40
2019-05-19T18:52:03.511Z,2.20
2019-05-19T18:54:36.506Z,2.90
2019-05-19T18:57:09.133Z,3.50
2019-05-19T18:59:47.496Z,2.97
2019-05-19T19:02:24.701Z,3.13
2019-05-19T19:05:02.704Z,3.30
2019-05-19T19:07:43.574Z,3.23
2019-05-19T19:10:17.955Z,3.20
2019-05-19T19:12:52.706Z,3.10
2019-05-19T19:15:30.420Z,3.10
2019-05-19T19:18:05.058Z,3.30
2019-05-19T19:20:42.801Z,3.00
2019-05-19T19:23:17.722Z,4.40
2019-05-19T19:25:50.422Z,3.83
2019-05-19T19:28:23.672Z,3.60
2019-05-19T19:30:57.572Z,4.70
2019-05-19T19:33:31.802Z,5.50
2019-05-19T19:36:04.245Z,4.43
2019-05-19T19:38:37.491Z,4.90
2019-05-19T19:41:11.105Z,5.07
2019-05-19T19:43:45.203Z,5.90
2019-05-19T19:46:18.380Z,5.20
2019-05-19T19:48:54.855Z,5.50
2019-05-19T19:51:28.875Z,6.57
2019-05-19T19:54:01.201Z,5.10
2019-05-19T19:56:33.772Z,6.87
2019-05-19T19:59:06.115Z,5.90
2019-05-19T20:01:39.457Z,8.00
2019-05-19T20:04:12.388Z,7.70
2019-05-19T20:06:44.766Z,9.73
2019-05-19T20:09:21.346Z,8.80
2019-05-19T20:11:55.964Z,7.80
2019-05-19T20:14:30.275Z,8.53
2019-05-19T20:17:03.976Z,8.90
2019-05-19T20:19:37.591Z,8.70
2019-05-19T20:22:12.941Z,9.13
2019-05-19T20:24:47.428Z,8.47
2019-05-19T20:27:23.134Z,7.57
2019-05-19T20:29:58.738Z,9.77
2019-05-19T20:32:32.514Z,7.90
2019-05-19T20:35:08.461Z,7.67
2019-05-19T20:37:43.079Z,7.30
2019-05-19T20:40:18.892Z,6.87
2019-05-19T20:42:56.565Z,7.57
2019-05-19T20:45:32.337Z,7.47
2019-05-19T20:48:07.322Z,8.90
2019-05-19T20:50:45.021Z,8.63
2019-05-19T20:53:18.474Z,8.37
2019-05-19T20:55:50.839Z,8.27
2019-05-19T20:58:25.919Z,9.60
2019-05-19T21:01:01.226Z,7.50
2019-05-19T21:03:34.237Z,8.37
2019-05-19T21:06:07.216Z,5.72
2019-05-19T21:08:41.002Z,6.30
2019-05-19T21:11:14.297Z,6.43
2019-05-19T21:13:49.574Z,7.80
2019-05-19T21:16:22.824Z,8.80
2019-05-19T21:18:57.327Z,8.97
2019-05-19T21:21:30.192Z,8.50
2019-05-19T21:24:04.480Z,10.17
2019-05-19T21:26:38.259Z,7.37
2019-05-19T21:29:11.994Z,9.93
2019-05-19T21:31:45.393Z,8.18
2019-05-19T21:34:25.589Z,9.60
2019-05-19T21:36:59.735Z,8.90
2019-05-19T21:39:32.643Z,8.70
2019-05-19T21:42:05.029Z,9.47
2019-05-19T21:44:38.261Z,8.70
2019-05-19T21:47:10.590Z,9.17
2019-05-19T21:49:43.797Z,8.30
2019-05-19T21:52:16.203Z,9.60
2019-05-19T21:54:48.599Z,6.97
2019-05-19T21:57:21.563Z,7.05
2019-05-19T21:59:54.528Z,8.33
2019-05-19T22:02:26.845Z,8.13
2019-05-19T22:05:01.614Z,9.17
2019-05-19T22:07:55.184Z,8.67
2019-05-19T22:10:39.998Z,7.75
2019-05-19T22:13:12.329Z,10.10
2019-05-19T22:15:44.645Z,9.23
2019-05-19T22:18:16.907Z,9.63
2019-05-19T22:20:50.792Z,9.70
2019-05-19T22:23:23.712Z,10.50
2019-05-19T22:25:56.019Z,9.20
2019-05-19T22:28:28.580Z,7.32
2019-05-19T22:31:00.901Z,8.47
2019-05-19T22:33:33.247Z,8.83
2019-05-19T22:36:05.604Z,8.70
2019-05-19T22:38:38.715Z,9.37
2019-05-19T22:41:13.009Z,9.10
2019-05-19T22:43:45.988Z,9.97
2019-05-19T22:46:19.004Z,8.87
2019-05-19T22:48:51.316Z,8.80
2019-05-19T22:51:23.690Z,9.83
2019-05-19T22:53:56.104Z,9.17
2019-05-19T22:56:28.487Z,7.95
2019-05-19T22:59:02.760Z,8.37
2019-05-19T23:01:49.680Z,11.17
2019-05-19T23:04:24.942Z,10.63
2019-05-19T23:06:58.066Z,11.23
2019-05-19T23:09:31.367Z,10.03
2019-05-19T23:12:05.143Z,10.30
2019-05-19T23:14:38.447Z,10.63
2019-05-19T23:17:10.837Z,10.37
2019-05-19T23:19:43.187Z,10.87
2019-05-19T23:22:15.512Z,10.40
2019-05-19T23:24:47.784Z,9.93
2019-05-19T23:27:22.926Z,10.97
2019-05-19T23:29:56.726Z,11.87
2019-05-19T23:32:29.597Z,10.57
2019-05-19T23:35:01.914Z,10.27
2019-05-19T23:37:34.205Z,12.27
2019-05-19T23:40:06.808Z,10.13
2019-05-19T23:42:39.828Z,9.53
2019-05-19T23:45:14.060Z,10.37
2019-05-19T23:47:48.430Z,11.10
2019-05-19T23:50:21.693Z,11.03
2019-05-19T23:52:54.908Z,10.53
2019-05-19T23:55:27.296Z,10.83
2019-05-19T23:58:00.156Z,8.98
